Time;durP1;ratioP1;P1;durP2;ratioP2;P2;SDS_P1;SDS_P2;PMS_P1;PMS_P2;Temp;Humidity;BMP_temperature;BMP_pressure;BME280_temperature;BME280_humidity;BME280_pressure;Samples;Min_cycle;Max_cycle;Signal;HPM_P1;HPM_P2
2021/07/12 00:00:23;;;;;;;2.53;2.10;;;15.10;97.30;;;;;;5041067;28;20781;-67
2021/07/12 00:02:50;;;;;;;5.17;3.73;;;15.10;97.40;;;;;;5047022;28;20538;-67
2021/07/12 00:05:18;;;;;;;3.30;2.30;;;15.10;97.60;;;;;;5034445;28;20473;-67
2021/07/12 00:07:45;;;;;;;2.40;1.70;;;15.10;97.50;;;;;;5034397;28;21043;-67
2021/07/12 00:10:14;;;;;;;5.00;1.60;;;15.10;97.50;;;;;;5038483;28;20957;-67
2021/07/12 00:12:44;;;;;;;2.70;1.67;;;15.10;97.40;;;;;;5053896;28;20432;-67
2021/07/12 00:15:16;;;;;;;3.00;1.60;;;15.10;97.70;;;;;;5042807;28;20874;-67
2021/07/12 00:17:43;;;;;;;2.27;1.50;;;15.10;97.50;;;;;;5041485;28;20484;-67
2021/07/12 00:20:11;;;;;;;12.67;2.57;;;15.10;97.40;;;;;;5050642;28;20552;-67
2021/07/12 00:22:40;;;;;;;7.10;2.00;;;15.10;97.20;;;;;;5051201;28;20445;-67
2021/07/12 00:25:18;;;;;;;2.63;1.90;;;15.10;97.20;;;;;;5050143;28;20861;-67
2021/07/12 00:27:46;;;;;;;5.70;2.50;;;15.00;97.20;;;;;;5047129;28;21016;-67
2021/07/12 00:30:18;;;;;;;3.90;2.80;;;15.00;97.30;;;;;;5050207;28;20448;-67
2021/07/12 00:32:46;;;;;;;3.03;2.17;;;15.00;97.20;;;;;;5052648;28;20437;-68
2021/07/12 00:35:15;;;;;;;3.27;2.30;;;14.90;97.20;;;;;;5051760;28;20524;-67
2021/07/12 00:37:43;;;;;;;2.53;1.70;;;14.90;97.30;;;;;;5053746;28;20915;-67
2021/07/12 00:40:13;;;;;;;3.30;2.30;;;14.90;97.20;;;;;;5039400;28;20768;-67
2021/07/12 00:42:40;;;;;;;3.17;1.97;;;14.80;97.00;;;;;;5033622;28;20449;-67
2021/07/12 00:45:14;;;;;;;2.30;1.53;;;14.80;97.20;;;;;;5046189;28;20445;-68
2021/07/12 00:47:41;;;;;;;4.00;1.80;;;14.70;97.00;;;;;;5053526;28;20950;-67
2021/07/12 00:50:12;;;;;;;2.50;1.80;;;14.70;96.90;;;;;;5051445;28;20481;-67
2021/07/12 00:52:39;;;;;;;2.80;2.30;;;14.60;96.90;;;;;;5053382;28;20452;-67
2021/07/12 00:55:14;;;;;;;6.23;1.90;;;14.60;97.00;;;;;;5037991;28;20572;-67
2021/07/12 00:57:42;;;;;;;2.90;2.00;;;14.60;97.20;;;;;;5046773;28;20484;-67
2021/07/12 01:00:15;;;;;;;2.73;1.67;;;14.60;97.40;;;;;;5053153;28;20524;-67
2021/07/12 01:02:43;;;;;;;2.50;1.70;;;14.60;97.40;;;;;;5040727;28;20495;-67
2021/07/12 01:05:16;;;;;;;4.07;1.83;;;14.60;97.40;;;;;;5033135;28;20989;-67
2021/07/12 01:07:44;;;;;;;2.10;1.40;;;14.60;97.30;;;;;;5045265;28;20444;-67
2021/07/12 01:10:12;;;;;;;1.80;1.00;;;14.50;96.80;;;;;;5053104;28;20428;-67
2021/07/12 01:12:45;;;;;;;2.43;1.50;;;14.50;96.40;;;;;;5040732;28;20442;-67
2021/07/12 01:15:16;;;;;;;2.67;1.53;;;14.40;96.40;;;;;;5032909;28;20477;-67
2021/07/12 01:17:54;;;;;;;4.60;1.47;;;14.40;96.70;;;;;;5044212;28;20460;-67
2021/07/12 01:21:01;;;;;;;2.23;1.63;;;14.40;96.60;;;;;;5052957;28;20539;-67
2021/07/12 01:23:39;;;;;;;2.40;1.50;;;14.40;96.60;;;;;;5033107;28;20528;-67
2021/07/12 01:26:48;;;;;;;2.00;1.50;;;14.30;96.50;;;;;;5033497;28;20437;-67
2021/07/12 01:29:30;;;;;;;2.57;1.40;;;14.30;96.70;;;;;;5047701;28;20453;-67
2021/07/12 01:32:37;;;;;;;4.10;1.00;;;14.30;96.80;;;;;;5045048;28;20944;-67
2021/07/12 01:35:10;;;;;;;1.70;0.80;;;14.30;96.40;;;;;;5032907;28;20489;-67
2021/07/12 01:37:45;;;;;;;2.07;1.50;;;14.20;95.80;;;;;;5044759;28;21009;-67
2021/07/12 01:40:16;;;;;;;2.40;1.37;;;14.20;96.10;;;;;;5052616;28;20441;-67
2021/07/12 01:42:48;;;;;;;2.80;1.30;;;14.10;96.20;;;;;;5039615;28;20434;-70
2021/07/12 01:45:17;;;;;;;2.10;1.37;;;14.10;96.50;;;;;;5038113;28;20452;-67
2021/07/12 01:48:02;;;;;;;5.63;0.90;;;14.10;96.50;;;;;;5052491;28;20478;-67
2021/07/12 01:50:34;;;;;;;1.90;1.20;;;14.00;96.30;;;;;;5044368;28;20931;-66
2021/07/12 01:53:14;;;;;;;3.13;1.30;;;14.00;96.20;;;;;;5032621;28;20947;-67
2021/07/12 01:55:54;;;;;;;2.80;1.47;;;13.90;95.90;;;;;;5040541;28;20472;-67
2021/07/12 01:58:31;;;;;;;7.80;2.50;;;13.90;95.80;;;;;;5052548;28;20836;-67
2021/07/12 02:01:00;;;;;;;3.57;2.00;;;13.80;96.10;;;;;;5041755;28;20940;-67
2021/07/12 02:03:30;;;;;;;4.10;2.40;;;13.90;96.40;;;;;;5032527;28;20431;-67
2021/07/12 02:06:00;;;;;;;2.40;1.50;;;13.90;96.40;;;;;;5041627;28;20433;-67
2021/07/12 02:08:28;;;;;;;4.90;1.73;;;13.90;96.30;;;;;;5052465;28;20441;-67
2021/07/12 02:10:57;;;;;;;3.20;1.60;;;13.80;96.40;;;;;;5046592;28;20441;-69
2021/07/12 02:13:24;;;;;;;4.03;1.83;;;13.80;96.60;;;;;;5032327;28;20445;-67
2021/07/12 02:15:57;;;;;;;3.40;2.30;;;13.80;96.90;;;;;;5039333;28;20484;-67
2021/07/12 02:18:26;;;;;;;5.03;1.83;;;13.80;96.90;;;;;;5052191;28;20947;-67
2021/07/12 02:20:57;;;;;;;4.27;2.50;;;13.80;96.90;;;;;;5044560;28;20434;-67
2021/07/12 02:23:26;;;;;;;3.23;1.83;;;13.80;96.90;;;;;;5032419;28;20524;-67
2021/07/12 02:25:53;;;;;;;3.20;2.47;;;13.80;97.00;;;;;;5038654;28;20472;-67
2021/07/12 02:28:21;;;;;;;4.20;1.70;;;13.80;97.00;;;;;;5051894;28;20482;-67
2021/07/12 02:30:48;;;;;;;3.20;1.80;;;13.80;97.00;;;;;;5046179;28;20434;-67
2021/07/12 02:33:16;;;;;;;8.20;2.30;;;13.80;96.80;;;;;;5031981;28;20446;-67
2021/07/12 02:35:45;;;;;;;6.73;2.23;;;13.80;96.70;;;;;;5039788;28;20489;-67
2021/07/12 02:38:16;;;;;;;9.70;2.93;;;13.80;96.90;;;;;;5051982;28;20436;-67
2021/07/12 02:40:45;;;;;;;6.57;3.00;;;13.80;96.70;;;;;;5031974;28;20925;-66
2021/07/12 02:43:14;;;;;;;3.00;2.10;;;13.70;97.00;;;;;;5032089;28;20829;-67
2021/07/12 02:45:41;;;;;;;12.53;2.40;;;13.80;97.40;;;;;;5050196;28;20996;-67
2021/07/12 02:48:09;;;;;;;7.97;1.60;;;13.80;97.60;;;;;;5046127;28;20483;-67
2021/07/12 02:50:39;;;;;;;5.57;2.50;;;13.80;97.90;;;;;;5031954;28;20438;-67
2021/07/12 02:53:12;;;;;;;7.40;2.47;;;13.90;97.80;;;;;;5035818;28;20444;-67
2021/07/12 02:55:47;;;;;;;7.70;2.10;;;13.80;98.00;;;;;;5051726;28;20567;-66
2021/07/12 02:58:18;;;;;;;10.20;1.80;;;13.80;98.00;;;;;;5049243;28;20487;-67
2021/07/12 03:00:50;;;;;;;8.93;2.50;;;13.80;98.10;;;;;;5035737;28;20503;-67
2021/07/12 03:03:17;;;;;;;8.40;2.13;;;13.80;98.10;;;;;;5039767;28;20506;-67
2021/07/12 03:06:01;;;;;;;13.77;2.60;;;13.80;98.00;;;;;;5055462;28;20437;-67
2021/07/12 03:08:39;;;;;;;5.70;1.90;;;13.80;97.70;;;;;;5038911;28;20437;-66
2021/07/12 03:11:12;;;;;;;3.17;1.53;;;13.80;97.70;;;;;;5035572;28;20841;-67
2021/07/12 03:13:47;;;;;;;2.80;1.70;;;13.80;97.90;;;;;;5052325;28;20445;-67
2021/07/12 03:16:15;;;;;;;4.83;1.97;;;13.90;98.00;;;;;;5054919;28;20494;-67
2021/07/12 03:18:47;;;;;;;8.13;2.00;;;13.90;97.90;;;;;;5038081;28;20445;-67
2021/07/12 03:21:15;;;;;;;4.30;2.20;;;13.90;97.80;;;;;;5035380;28;20437;-68
2021/07/12 03:23:43;;;;;;;5.90;2.93;;;13.90;98.00;;;;;;5051253;28;20436;-67
2021/07/12 03:26:14;;;;;;;5.60;2.87;;;14.00;98.00;;;;;;5055182;28;20806;-67
2021/07/12 03:28:42;;;;;;;7.97;2.67;;;14.00;98.00;;;;;;5038914;28;20465;-67
2021/07/12 03:31:11;;;;;;;10.87;2.33;;;14.10;98.10;;;;;;5035005;28;20457;-67
2021/07/12 03:33:39;;;;;;;9.60;2.60;;;14.10;98.10;;;;;;5049599;28;20516;-67
2021/07/12 03:36:08;;;;;;;11.13;2.50;;;14.10;98.00;;;;;;5054863;28;20511;-67
2021/07/12 03:38:37;;;;;;;8.20;3.30;;;14.10;98.20;;;;;;5052966;28;20433;-67
2021/07/12 03:41:06;;;;;;;9.63;3.50;;;14.10;98.20;;;;;;5054882;28;20440;-67
2021/07/12 03:43:35;;;;;;;7.63;2.60;;;14.00;98.60;;;;;;5039069;28;20437;-67
2021/07/12 03:46:05;;;;;;;13.20;3.00;;;13.90;98.90;;;;;;5034781;28;20872;-67
2021/07/12 03:48:39;;;;;;;7.13;2.33;;;13.90;99.30;;;;;;5049870;28;20558;-67
2021/07/12 03:51:09;;;;;;;3.90;2.60;;;13.80;99.90;;;;;;5054668;28;20440;-68
2021/07/12 03:53:41;;;;;;;3.90;2.50;;;13.60;99.90;;;;;;5038085;28;20450;-67
2021/07/12 03:56:08;;;;;;;4.50;2.47;;;13.60;99.90;;;;;;5034665;28;20485;-67
2021/07/12 03:58:39;;;;;;;6.33;2.63;;;13.60;99.90;;;;;;5049329;28;20465;-67
2021/07/12 04:01:07;;;;;;;3.37;1.97;;;13.70;99.90;;;;;;5054536;28;20440;-67
2021/07/12 04:03:51;;;;;;;3.67;2.57;;;13.70;99.90;;;;;;5039705;28;20442;-67
2021/07/12 04:06:20;;;;;;;4.00;2.30;;;13.70;99.90;;;;;;5046982;28;20486;-67
2021/07/12 04:08:49;;;;;;;3.03;2.43;;;13.70;99.90;;;;;;5043260;28;20449;-67
2021/07/12 04:11:22;;;;;;;2.77;2.13;;;13.80;99.90;;;;;;5034452;28;20441;-67
2021/07/12 04:13:50;;;;;;;4.00;2.80;;;13.80;99.90;;;;;;5044839;28;20437;-67
2021/07/12 04:16:19;;;;;;;3.50;2.37;;;13.90;99.90;;;;;;5053695;28;20576;-67
2021/07/12 04:18:46;;;;;;;3.60;2.30;;;13.80;99.90;;;;;;5044382;28;20430;-67
2021/07/12 04:21:13;;;;;;;3.40;2.90;;;13.90;99.90;;;;;;5034609;28;20476;-67
2021/07/12 04:23:45;;;;;;;5.67;2.50;;;14.00;99.90;;;;;;5042429;28;20520;-67
2021/07/12 04:26:12;;;;;;;3.30;2.20;;;14.10;99.90;;;;;;5054392;28;20437;-67
2021/07/12 04:28:39;;;;;;;3.47;2.30;;;14.10;99.90;;;;;;5049596;28;20457;-67
2021/07/12 04:31:08;;;;;;;3.07;2.03;;;14.20;99.90;;;;;;5034056;28;20442;-67
2021/07/12 04:33:35;;;;;;;9.13;2.53;;;14.30;99.90;;;;;;5040157;28;20433;-68
2021/07/12 04:36:02;;;;;;;6.33;2.97;;;14.40;99.90;;;;;;5053867;28;20542;-73
2021/07/12 04:38:29;;;;;;;3.90;2.70;;;14.40;99.90;;;;;;5052151;28;20476;-68
2021/07/12 04:40:56;;;;;;;3.73;2.20;;;14.50;99.90;;;;;;5054099;28;20830;-67
2021/07/12 04:43:33;;;;;;;3.57;2.13;;;14.60;99.90;;;;;;5050139;28;20442;-68
2021/07/12 04:46:06;;;;;;;4.47;2.00;;;14.60;99.90;;;;;;5033467;28;20437;-68
2021/07/12 04:48:34;;;;;;;10.07;2.50;;;14.70;99.90;;;;;;5037912;28;20518;-69
2021/07/12 04:51:02;;;;;;;5.27;2.93;;;14.80;99.70;;;;;;5053915;28;20444;-68
2021/07/12 04:53:30;;;;;;;3.73;2.23;;;14.90;99.30;;;;;;5050168;28;20809;-68
2021/07/12 04:56:02;;;;;;;19.93;2.73;;;14.90;99.30;;;;;;5033785;28;20547;-67
2021/07/12 04:58:35;;;;;;;2.70;2.40;;;14.90;98.40;;;;;;5035890;28;20442;-68
2021/07/12 05:01:03;;;;;;;3.13;1.90;;;14.90;98.40;;;;;;5053001;28;20429;-68
2021/07/12 05:03:33;;;;;;;10.23;2.33;;;15.00;98.60;;;;;;5033588;28;20508;-69
2021/07/12 05:06:00;;;;;;;3.33;2.20;;;15.00;98.50;;;;;;5033745;28;20442;-70
2021/07/12 05:08:28;;;;;;;3.03;2.20;;;15.00;98.20;;;;;;5033714;28;20457;-68
2021/07/12 05:10:55;;;;;;;2.50;2.00;;;15.10;98.60;;;;;;5033551;28;20436;-68
2021/07/12 05:13:23;;;;;;;3.90;2.40;;;15.20;98.30;;;;;;5034717;28;20438;-72
2021/07/12 05:15:50;;;;;;;6.70;2.27;;;15.20;98.50;;;;;;5033074;28;20848;-68
2021/07/12 05:18:17;;;;;;;6.43;1.70;;;15.30;98.30;;;;;;5050028;28;21068;-70
2021/07/12 05:20:52;;;;;;;2.83;1.40;;;15.30;97.70;;;;;;5052885;28;20444;-69
2021/07/12 05:23:19;;;;;;;2.50;1.77;;;15.40;98.00;;;;;;5038904;28;20461;-69
2021/07/12 05:25:46;;;;;;;2.50;1.70;;;15.50;98.20;;;;;;5032730;28;20441;-76
2021/07/12 05:28:13;;;;;;;2.73;1.57;;;15.60;98.30;;;;;;5041580;28;20450;-69
2021/07/12 05:30:41;;;;;;;2.50;1.53;;;15.70;97.90;;;;;;5049474;28;21054;-69
2021/07/12 05:33:10;;;;;;;4.20;1.40;;;15.90;98.20;;;;;;5038801;28;20844;-69
2021/07/12 05:35:38;;;;;;;2.30;1.50;;;15.90;97.10;;;;;;5032210;28;20437;-69
2021/07/12 05:38:07;;;;;;;2.57;1.60;;;16.00;97.40;;;;;;5032281;28;21009;-73
2021/07/12 05:40:36;;;;;;;2.37;1.40;;;16.10;97.40;;;;;;5032814;28;20434;-70
2021/07/12 05:43:05;;;;;;;2.90;1.83;;;16.20;97.40;;;;;;5045132;28;20440;-69
2021/07/12 05:45:32;;;;;;;3.10;1.83;;;16.20;97.00;;;;;;5048060;28;20845;-68
2021/07/12 05:47:59;;;;;;;5.40;1.93;;;16.30;97.00;;;;;;5049960;28;20433;-68
2021/07/12 05:50:26;;;;;;;2.20;1.60;;;16.40;96.50;;;;;;5048259;28;20783;-69
2021/07/12 05:53:00;;;;;;;7.70;1.60;;;16.30;96.50;;;;;;5049862;28;20498;-70
2021/07/12 05:55:30;;;;;;;2.43;1.63;;;16.40;96.80;;;;;;5045936;28;20437;-69
2021/07/12 05:57:57;;;;;;;2.50;1.67;;;16.50;97.10;;;;;;5047041;28;20516;-69
2021/07/12 06:00:28;;;;;;;2.33;1.70;;;16.60;97.20;;;;;;5039875;28;20430;-69
2021/07/12 06:03:02;;;;;;;4.57;2.03;;;16.70;97.00;;;;;;5031987;28;20539;-69
2021/07/12 06:05:29;;;;;;;2.60;1.90;;;16.90;96.60;;;;;;5032173;28;20527;-69
2021/07/12 06:07:56;;;;;;;2.20;1.47;;;17.00;96.50;;;;;;5032834;28;20496;-70
2021/07/12 06:10:25;;;;;;;4.10;1.50;;;17.00;96.00;;;;;;5032275;28;20933;-69
2021/07/12 06:12:54;;;;;;;2.73;1.80;;;17.10;96.10;;;;;;5032173;28;20441;-71
2021/07/12 06:15:21;;;;;;;2.70;2.10;;;17.20;95.70;;;;;;5032347;28;20434;-69
2021/07/12 06:17:51;;;;;;;2.97;2.53;;;17.40;96.10;;;;;;5034307;28;20520;-69
2021/07/12 06:20:18;;;;;;;3.03;2.20;;;17.50;95.70;;;;;;5033336;28;20457;-68
2021/07/12 06:22:46;;;;;;;2.50;1.77;;;17.40;95.40;;;;;;5048894;28;20973;-69
2021/07/12 06:25:15;;;;;;;2.53;1.53;;;17.50;95.60;;;;;;5043621;28;20499;-70
2021/07/12 06:27:42;;;;;;;2.87;2.17;;;17.60;96.20;;;;;;5031849;28;20426;-70
2021/07/12 06:30:12;;;;;;;2.40;1.80;;;17.70;96.10;;;;;;5031931;28;20442;-70
2021/07/12 06:32:39;;;;;;;2.27;1.53;;;17.80;95.40;;;;;;5033863;28;20524;-69
2021/07/12 06:35:19;;;;;;;4.20;1.80;;;17.90;95.50;;;;;;5035719;28;21110;-70
2021/07/12 06:37:46;;;;;;;3.93;2.73;;;18.00;94.90;;;;;;5053277;28;20570;-68
2021/07/12 06:40:14;;;;;;;2.40;2.00;;;18.10;95.20;;;;;;5053641;28;20433;-68
2021/07/12 06:42:41;;;;;;;3.53;2.37;;;18.20;95.00;;;;;;5053056;28;20518;-69
2021/07/12 06:45:15;;;;;;;3.83;2.30;;;18.10;94.50;;;;;;5052255;28;20432;-69
2021/07/12 06:47:47;;;;;;;4.30;3.30;;;18.10;94.70;;;;;;5052385;28;20896;-69
2021/07/12 06:50:22;;;;;;;5.37;2.00;;;18.20;94.80;;;;;;5052426;28;20859;-69
2021/07/12 06:52:52;;;;;;;5.40;2.00;;;18.10;94.10;;;;;;5052999;28;20450;-69
2021/07/12 06:55:21;;;;;;;2.63;1.90;;;18.00;94.40;;;;;;5041257;28;20842;-69
2021/07/12 06:57:49;;;;;;;3.33;1.90;;;18.00;95.10;;;;;;5035668;28;20844;-70
2021/07/12 07:00:17;;;;;;;6.43;2.70;;;18.00;95.50;;;;;;5035663;28;20524;-69
2021/07/12 07:02:44;;;;;;;4.73;2.87;;;18.00;95.70;;;;;;5035595;28;20449;-68
2021/07/12 07:05:12;;;;;;;3.77;2.63;;;18.00;95.90;;;;;;5042946;28;20438;-69
2021/07/12 07:07:49;;;;;;;5.33;3.20;;;18.10;96.10;;;;;;5034882;28;20528;-73
2021/07/12 07:10:21;;;;;;;3.73;2.63;;;18.10;96.20;;;;;;5050705;28;20527;-68
2021/07/12 07:12:48;;;;;;;2.60;1.90;;;18.20;96.30;;;;;;5035112;28;20476;-70
2021/07/12 07:15:19;;;;;;;2.80;1.80;;;18.30;96.60;;;;;;5035237;28;20473;-69
2021/07/12 07:17:46;;;;;;;3.03;2.07;;;18.30;96.90;;;;;;5036544;28;20479;-69
2021/07/12 07:20:14;;;;;;;3.90;1.90;;;18.40;96.90;;;;;;5051780;28;21082;-71
2021/07/12 07:22:41;;;;;;;6.00;2.17;;;18.40;96.80;;;;;;5034628;28;20523;-69
2021/07/12 07:25:08;;;;;;;3.90;2.03;;;18.50;96.60;;;;;;5035384;28;20487;-69
2021/07/12 07:27:40;;;;;;;3.43;1.73;;;18.60;96.60;;;;;;5041350;28;21003;-69
2021/07/12 07:30:10;;;;;;;5.70;2.13;;;18.80;96.80;;;;;;5034209;28;20450;-71
2021/07/12 07:32:39;;;;;;;2.60;2.20;;;18.80;96.50;;;;;;5038241;28;20441;-69
2021/07/12 07:35:08;;;;;;;3.30;2.20;;;18.90;96.70;;;;;;5034001;28;20477;-69
2021/07/12 07:37:40;;;;;;;3.23;2.20;;;19.10;96.80;;;;;;5033959;28;20568;-72
2021/07/12 07:40:10;;;;;;;3.20;2.47;;;19.20;96.10;;;;;;5039841;28;20438;-69
2021/07/12 07:42:37;;;;;;;2.57;1.67;;;19.30;96.00;;;;;;5034256;28;20434;-69
2021/07/12 07:45:07;;;;;;;3.60;1.87;;;19.50;95.70;;;;;;5035232;28;20835;-69
2021/07/12 07:47:35;;;;;;;4.40;1.93;;;19.60;95.70;;;;;;5038837;28;20441;-69
2021/07/12 07:50:10;;;;;;;4.70;2.20;;;19.60;94.40;;;;;;5035293;28;20789;-68
2021/07/12 07:52:38;;;;;;;2.90;1.80;;;19.80;94.80;;;;;;5035006;28;20445;-69
2021/07/12 07:55:10;;;;;;;3.87;2.10;;;19.90;94.90;;;;;;5036752;28;20492;-69
2021/07/12 07:57:45;;;;;;;12.73;2.53;;;20.10;95.00;;;;;;5035527;28;21022;-69
2021/07/12 08:00:22;;;;;;;3.07;2.30;;;20.30;95.00;;;;;;5035937;28;20861;-70
2021/07/12 08:02:50;;;;;;;4.37;1.87;;;20.50;92.20;;;;;;5035836;28;20448;-69
2021/07/12 08:05:18;;;;;;;6.07;1.97;;;20.50;92.70;;;;;;5036187;28;20438;-69
2021/07/12 08:07:46;;;;;;;4.13;1.40;;;20.60;92.90;;;;;;5032042;28;20484;-68
2021/07/12 08:10:15;;;;;;;5.00;2.27;;;20.70;93.10;;;;;;5036167;28;20502;-69
2021/07/12 08:12:42;;;;;;;2.47;1.50;;;20.80;93.00;;;;;;5035564;28;20445;-69
2021/07/12 08:15:16;;;;;;;3.30;1.47;;;20.90;92.90;;;;;;5036357;28;20492;-72
2021/07/12 08:17:46;;;;;;;2.83;1.80;;;21.00;93.40;;;;;;5036390;28;20528;-74
2021/07/12 08:20:15;;;;;;;3.30;1.63;;;21.20;93.60;;;;;;5036521;28;20525;-69
2021/07/12 08:22:51;;;;;;;3.13;1.50;;;21.30;93.40;;;;;;5034599;28;20442;-69
2021/07/12 08:25:19;;;;;;;3.97;1.87;;;21.40;92.90;;;;;;5034067;28;20449;-69
2021/07/12 08:27:46;;;;;;;6.87;1.50;;;21.50;92.70;;;;;;5033823;28;20438;-69
2021/07/12 08:33:28;;;;;;;4.10;1.60;;;21.70;92.10;;;;;;5038522;28;20786;-70
2021/07/12 08:36:01;;;;;;;3.23;1.50;;;21.90;92.20;;;;;;5040917;28;20470;-69
2021/07/12 08:38:33;;;;;;;6.30;1.77;;;22.00;92.10;;;;;;5034256;28;20485;-69
2021/07/12 08:41:00;;;;;;;2.40;1.73;;;22.10;91.60;;;;;;5034974;28;20800;-69
2021/07/12 08:43:31;;;;;;;3.70;2.00;;;22.30;91.40;;;;;;5033864;28;20476;-70
2021/07/12 08:45:58;;;;;;;3.37;1.70;;;22.30;92.20;;;;;;5034426;28;20478;-69
2021/07/12 08:48:30;;;;;;;3.87;2.00;;;22.50;91.70;;;;;;5032842;28;20481;-69
2021/07/12 08:50:57;;;;;;;2.33;1.60;;;22.60;90.40;;;;;;5033553;28;20441;-69
2021/07/12 08:53:23;;;;;;;2.40;1.50;;;22.70;89.20;;;;;;5035733;28;20449;-70
2021/07/12 08:55:52;;;;;;;2.40;1.80;;;22.80;87.70;;;;;;5032286;28;20536;-69
2021/07/12 08:58:23;;;;;;;3.47;1.70;;;22.90;88.60;;;;;;5033805;28;20577;-69
2021/07/12 09:00:52;;;;;;;3.10;2.00;;;23.00;88.40;;;;;;5033887;28;20450;-69
2021/07/12 09:03:28;;;;;;;4.40;1.93;;;23.20;86.60;;;;;;5036690;28;20458;-69
2021/07/12 09:06:03;;;;;;;2.70;1.60;;;23.30;86.70;;;;;;5034314;28;20520;-69
2021/07/12 09:08:39;;;;;;;3.60;1.73;;;23.40;86.00;;;;;;5034244;28;20528;-70
2021/07/12 09:11:19;;;;;;;2.30;1.40;;;23.50;84.80;;;;;;5034829;28;20525;-71
2021/07/12 09:13:49;;;;;;;2.20;1.40;;;23.60;82.90;;;;;;5031925;28;20452;-70
2021/07/12 09:16:36;;;;;;;2.73;1.70;;;23.70;83.70;;;;;;5032131;28;20544;-69
2021/07/12 09:19:06;;;;;;;2.80;1.50;;;23.80;81.80;;;;;;5033351;28;20435;-69
2021/07/12 09:21:34;;;;;;;4.03;1.80;;;23.90;80.90;;;;;;5034481;28;20868;-69
2021/07/12 09:24:31;;;;;;;3.27;1.70;;;24.00;81.50;;;;;;5033131;28;20445;-70
2021/07/12 09:27:03;;;;;;;2.50;1.50;;;24.20;81.50;;;;;;5037806;28;20928;-69
2021/07/12 09:29:32;;;;;;;3.77;1.50;;;24.30;80.40;;;;;;5036401;28;20450;-70
2021/07/12 09:32:00;;;;;;;2.33;1.10;;;24.40;77.50;;;;;;5033393;28;20526;-70
2021/07/12 09:34:27;;;;;;;2.77;1.53;;;24.50;78.80;;;;;;5033612;28;20497;-69
2021/07/12 09:36:59;;;;;;;2.10;1.30;;;24.50;72.60;;;;;;5031753;28;20475;-69
2021/07/12 09:39:32;;;;;;;2.30;1.43;;;24.50;75.40;;;;;;5032022;28;20851;-69
2021/07/12 09:42:10;;;;;;;3.13;1.50;;;24.60;77.30;;;;;;5032597;28;20446;-69
2021/07/12 09:44:42;;;;;;;3.97;1.60;;;24.80;78.80;;;;;;5034253;28;20448;-70
2021/07/12 09:47:13;;;;;;;3.93;1.70;;;24.90;78.80;;;;;;5032789;28;20494;-69
2021/07/12 09:49:41;;;;;;;2.40;1.50;;;25.10;77.30;;;;;;5033880;28;20960;-70
2021/07/12 09:52:11;;;;;;;2.73;1.80;;;25.20;77.10;;;;;;5033738;28;20461;-70
2021/07/12 09:54:41;;;;;;;3.07;1.50;;;25.30;76.40;;;;;;5033338;28;20912;-69
2021/07/12 09:57:14;;;;;;;2.30;1.33;;;25.50;76.30;;;;;;5033119;28;20540;-70
2021/07/12 10:00:05;;;;;;;3.60;1.43;;;25.60;76.20;;;;;;5033968;28;20434;-69
2021/07/12 10:02:34;;;;;;;3.00;1.57;;;25.80;76.20;;;;;;5033564;28;20434;-70
2021/07/12 10:05:05;;;;;;;2.50;1.40;;;26.00;73.40;;;;;;5035896;28;20449;-69
2021/07/12 10:07:34;;;;;;;3.30;1.50;;;26.10;71.00;;;;;;5036410;28;20912;-69
2021/07/12 10:10:05;;;;;;;3.03;1.70;;;26.20;71.90;;;;;;5040733;28;20445;-71
2021/07/12 10:12:34;;;;;;;2.20;1.30;;;26.30;73.30;;;;;;5036232;28;20502;-70
2021/07/12 10:15:01;;;;;;;2.80;1.60;;;26.40;73.20;;;;;;5038748;28;20445;-71
2021/07/12 10:17:28;;;;;;;2.40;1.60;;;26.50;72.20;;;;;;5044765;28;20503;-70
2021/07/12 10:19:54;;;;;;;2.90;1.60;;;26.50;70.20;;;;;;5036095;28;20525;-69
2021/07/12 10:22:26;;;;;;;2.83;1.50;;;26.60;66.90;;;;;;5030844;28;20445;-70
2021/07/12 10:24:53;;;;;;;3.30;1.70;;;26.60;67.20;;;;;;5030815;28;20529;-70
2021/07/12 10:27:25;;;;;;;3.40;1.63;;;26.70;69.10;;;;;;5036284;28;20445;-70
2021/07/12 10:29:55;;;;;;;2.37;1.70;;;26.80;68.30;;;;;;5035393;28;20461;-69
2021/07/12 10:32:23;;;;;;;2.47;1.87;;;26.80;65.10;;;;;;5042018;28;20453;-70
2021/07/12 10:34:51;;;;;;;3.80;1.80;;;26.90;66.70;;;;;;5032200;28;20536;-70
2021/07/12 10:37:25;;;;;;;2.60;1.73;;;27.00;68.90;;;;;;5032435;28;20535;-69
2021/07/12 10:40:12;;;;;;;2.67;1.90;;;27.00;68.40;;;;;;5032554;28;20507;-70
2021/07/12 10:42:56;;;;;;;2.17;1.57;;;27.10;68.80;;;;;;5048702;28;20792;-70
2021/07/12 10:45:36;;;;;;;2.57;1.67;;;27.20;69.90;;;;;;5037692;28;20466;-70
2021/07/12 10:48:42;;;;;;;4.10;2.17;;;27.40;70.10;;;;;;5031050;28;20477;-70
2021/07/12 10:51:19;;;;;;;2.10;1.50;;;27.50;69.40;;;;;;5031244;28;20456;-69
2021/07/12 10:53:58;;;;;;;2.47;1.70;;;27.60;67.10;;;;;;5031867;28;20552;-69
2021/07/12 10:56:50;;;;;;;3.00;1.70;;;27.60;63.00;;;;;;5030798;28;20441;-69
2021/07/12 10:59:35;;;;;;;2.60;1.83;;;27.60;64.50;;;;;;5036244;28;20481;-69
2021/07/12 11:02:31;;;;;;;3.20;1.70;;;27.70;66.30;;;;;;5030328;28;20930;-71
2021/07/12 11:05:04;;;;;;;2.53;1.20;;;27.80;67.30;;;;;;5035486;28;20545;-69
2021/07/12 11:07:46;;;;;;;2.50;1.77;;;27.90;65.40;;;;;;5030787;28;20433;-69
2021/07/12 11:10:24;;;;;;;4.93;1.50;;;28.00;62.80;;;;;;5031880;28;20424;-69
2021/07/12 11:12:54;;;;;;;4.40;1.50;;;28.00;61.60;;;;;;5031778;28;20570;-69
2021/07/12 11:15:30;;;;;;;3.10;1.80;;;28.00;62.20;;;;;;5039464;28;20449;-69
2021/07/12 11:18:06;;;;;;;7.20;2.20;;;28.10;64.10;;;;;;5049876;28;20569;-69
2021/07/12 11:20:57;;;;;;;2.40;1.67;;;28.20;63.70;;;;;;5040391;28;20539;-69
2021/07/12 11:23:56;;;;;;;3.53;1.80;;;28.30;62.80;;;;;;5053727;28;20461;-69
2021/07/12 11:26:50;;;;;;;3.97;1.50;;;28.40;64.50;;;;;;5055102;28;20532;-70
2021/07/12 11:29:29;;;;;;;3.30;1.87;;;28.40;63.10;;;;;;5055318;28;20440;-69
2021/07/12 11:31:59;;;;;;;3.00;2.07;;;28.50;61.20;;;;;;5040049;28;20433;-69
2021/07/12 11:34:28;;;;;;;2.40;1.37;;;28.50;59.90;;;;;;5055299;28;20440;-69
2021/07/12 11:36:58;;;;;;;3.57;1.60;;;28.50;60.10;;;;;;5035700;28;20850;-70
2021/07/12 11:39:28;;;;;;;2.23;1.47;;;28.60;60.60;;;;;;5035330;28;20494;-69
2021/07/12 11:41:56;;;;;;;5.10;1.70;;;28.60;59.70;;;;;;5053583;28;20902;-69
2021/07/12 11:44:25;;;;;;;4.23;2.40;;;28.60;59.00;;;;;;5055292;28;20984;-69
2021/07/12 11:46:54;;;;;;;2.40;1.63;;;28.70;57.40;;;;;;5037119;28;20498;-69
2021/07/12 11:49:27;;;;;;;4.00;1.80;;;28.60;55.30;;;;;;5035040;28;20445;-69
2021/07/12 11:51:58;;;;;;;3.23;1.53;;;28.60;55.80;;;;;;5036032;28;20841;-69
2021/07/12 11:54:28;;;;;;;3.03;1.73;;;28.70;57.50;;;;;;5046628;28;20444;-69
2021/07/12 11:57:01;;;;;;;2.90;2.00;;;28.70;58.70;;;;;;5041741;28;20800;-69
2021/07/12 11:59:30;;;;;;;2.57;1.40;;;28.70;60.00;;;;;;5037002;28;20538;-69
2021/07/12 12:02:07;;;;;;;2.63;1.47;;;28.80;58.80;;;;;;5034020;28;20851;-69
2021/07/12 12:04:48;;;;;;;2.77;1.70;;;28.80;54.90;;;;;;5041452;28;20481;-69
2021/07/12 12:07:36;;;;;;;2.30;1.30;;;28.80;55.50;;;;;;5037423;28;20444;-70
2021/07/12 12:10:10;;;;;;;6.20;1.53;;;28.90;57.30;;;;;;5036086;28;20944;-69
2021/07/12 12:12:40;;;;;;;2.30;1.43;;;28.90;53.50;;;;;;5034240;28;20437;-69
2021/07/12 12:15:11;;;;;;;2.90;1.70;;;28.90;53.30;;;;;;5036842;28;20472;-69
2021/07/12 12:17:42;;;;;;;1.93;1.20;;;28.90;55.70;;;;;;5039788;28;20862;-69
2021/07/12 12:20:14;;;;;;;2.20;1.60;;;29.00;54.60;;;;;;5034533;28;20437;-69
2021/07/12 12:23:12;;;;;;;3.67;1.70;;;29.00;56.20;;;;;;5033985;28;20437;-69
2021/07/12 12:25:46;;;;;;;3.13;1.73;;;29.10;56.10;;;;;;5033969;28;20429;-69
2021/07/12 12:28:25;;;;;;;2.43;1.50;;;29.20;55.50;;;;;;5034063;28;20477;-69
2021/07/12 12:30:53;;;;;;;4.33;1.70;;;29.20;54.10;;;;;;5033095;28;20936;-68
2021/07/12 12:33:26;;;;;;;3.57;1.70;;;29.10;51.80;;;;;;5034293;28;20434;-69
2021/07/12 12:35:58;;;;;;;2.90;1.57;;;29.10;53.70;;;;;;5054238;28;20502;-69
2021/07/12 12:38:26;;;;;;;2.50;1.60;;;29.10;55.10;;;;;;5052894;28;20519;-69
2021/07/12 12:41:02;;;;;;;2.30;1.63;;;29.10;51.40;;;;;;5033955;28;20438;-69
2021/07/12 12:43:29;;;;;;;2.80;1.77;;;29.00;52.30;;;;;;5034535;28;20444;-69
2021/07/12 12:46:00;;;;;;;3.70;1.50;;;29.00;51.80;;;;;;5043746;28;20436;-69
2021/07/12 12:48:36;;;;;;;5.40;1.50;;;29.00;53.00;;;;;;5034845;28;20514;-71
2021/07/12 12:51:26;;;;;;;2.20;1.40;;;29.00;54.10;;;;;;5040920;28;20641;-69
2021/07/12 12:54:10;;;;;;;2.80;1.63;;;29.00;50.50;;;;;;5045130;28;20501;-69
2021/07/12 12:56:47;;;;;;;2.77;1.40;;;28.90;48.80;;;;;;5042070;28;20449;-69
2021/07/12 12:59:16;;;;;;;2.30;1.70;;;28.90;50.40;;;;;;5032717;28;20502;-69
2021/07/12 13:01:46;;;;;;;2.67;1.50;;;28.90;52.70;;;;;;5034278;28;20472;-72
2021/07/12 13:04:17;;;;;;;4.60;1.77;;;28.90;53.10;;;;;;5032944;28;20445;-69
2021/07/12 13:06:52;;;;;;;2.50;1.80;;;28.90;54.00;;;;;;5032418;28;20473;-69
2021/07/12 13:09:33;;;;;;;8.40;2.70;;;28.90;52.20;;;;;;5034032;28;20538;-70
2021/07/12 13:12:13;;;;;;;3.03;1.33;;;28.90;51.80;;;;;;5033848;28;20472;-69